METAR Data
IDs: Format: Raw Decoded Include TAF

Data at: 0207 UTC 24 Sep 2018

KXPY 240155Z AUTO 14009KT 10SM BKN028 BKN036 OVC044 29/24 A2993 RMK A01
KXPY 240135Z AUTO 15005KT 10SM SCT029 BKN034 BKN040 29/24 A2992 RMK A01
KXPY 240115Z AUTO 14006KT 10SM SCT029 BKN038 29/23 A2991 RMK A01
KXPY 240055Z AUTO 13007KT 10SM FEW031 29/23 A2991 RMK A01
KXPY 240035Z AUTO 13007KT 10SM FEW033 FEW039 29/23 A2990 RMK A01
KXPY 240015Z AUTO 14008KT 10SM SCT034 SCT040 30/23 A2990 RMK A01
KXPY 232355Z AUTO 13007KT 10SM SCT033 SCT041 30/23 A2990 RMK A01
KXPY 232335Z AUTO 15005KT 10SM BKN031 BKN039 30/23 A2990 RMK A01
KXPY 232310Z AUTO 14007KT 10SM SCT030 30/23 A2990 RMK A01
KXPY 232255Z AUTO 17005KT 10SM FEW031 30/23 A2990 RMK A01
KXPY 232235Z AUTO 19004KT 10SM FEW034 30/22 A2989 RMK A01
KXPY 232215Z AUTO 20007KT 10SM FEW032 31/22 A2990 RMK A01
KXPY 232155Z AUTO 00000KT 10SM CLR 30/22 A2990 RMK A01
KXPY 232135Z AUTO 20005G10KT 10SM CLR 31/22 A2990 RMK A01
KXPY 232115Z AUTO 17007KT 9SM CLR 31/22 A2990 RMK A01
KXPY 232055Z AUTO 18005G11KT 10SM FEW033 SCT043 31/22 A2990 RMK A01
KXPY 232035Z AUTO 17007KT 140V200 10SM SCT031 SCT043 30/23 A2991 RMK A01
KXPY 232015Z AUTO VRB06G12KT 9SM FEW031 31/23 A2991 RMK A01
KXPY 231955Z AUTO 20007KT 160V220 10SM FEW034 FEW090 31/22 A2991 RMK A01
KXPY 231935Z AUTO VRB06G13KT 10SM FEW034 SCT090 31/22 A2993 RMK A01
KXPY 231915Z AUTO 17007KT 10SM FEW090 31/22 A2993 RMK A01
KXPY 231855Z AUTO 19008KT 150V210 10SM CLR 31/23 A2994 RMK A01
KXPY 231835Z AUTO 16007KT 10SM CLR 31/23 A2995 RMK A01
KXPY 231815Z AUTO 17007G12KT 140V200 10SM CLR 31/22 A2995 RMK A01
KXPY 231755Z AUTO 22006KT 10SM CLR 31/23 A2996 RMK A01
KXPY 231735Z AUTO 16007G12KT 10SM FEW030 FEW035 FEW075 31/23 A2997 RMK A01
KXPY 231715Z AUTO 21007KT 10SM FEW031 FEW075 31/23 A2997 RMK A01
KXPY 231655Z AUTO 17007KT 10SM FEW029 FEW034 31/23 A2998 RMK A01
KXPY 231635Z AUTO 20007KT 150V220 10SM CLR 31/23 A2998 RMK A01
KXPY 231615Z AUTO 18005KT 10SM CLR 30/23 A2998 RMK A01
KXPY 231555Z AUTO 18007KT 10SM CLR 30/23 A2998 RMK A01
KXPY 231535Z AUTO 14007KT 10SM FEW029 SCT037 30/23 A2998 RMK A01
KXPY 231515Z AUTO 16007KT 10SM FEW029 30/23 A2998 RMK A01
KXPY 231455Z AUTO 20007KT 10SM CLR 30/23 A2998 RMK A01
KXPY 231435Z AUTO 17004KT 10SM CLR 30/23 A2997 RMK A01
KXPY 231415Z AUTO 16007KT 10SM FEW030 30/23 A2997 RMK A01
KXPY 231355Z AUTO 19007KT 10SM FEW029 FEW037 30/23 A2997 RMK A01
KXPY 231335Z AUTO 17006KT 10SM FEW032 29/22 A2996 RMK A01
KXPY 231315Z AUTO 18006KT 10SM FEW027 29/23 A2996 RMK A01
KXPY 231255Z AUTO 17007KT 10SM FEW027 29/23 A2996 RMK A01
KXPY 231235Z AUTO 17007KT 10SM SCT028 SCT036 29/23 A2995 RMK A01
KXPY 231215Z AUTO 18006KT 9SM FEW027 28/23 A2995 RMK A01
KXPY 231155Z AUTO 10SM FEW028 29/23 A2994 RMK A01
KXPY 231135Z AUTO 17005KT 10SM FEW028 28/23 A2994 RMK A01
KXPY 231115Z AUTO 17007KT 10SM CLR 29/23 A2993 RMK A01
KXPY 231055Z AUTO 16006G11KT 10SM FEW028 29/23 A2993 RMK A01
KXPY 231035Z AUTO 16009KT 10SM FEW028 29/23 A2992 RMK A01
KXPY 231015Z AUTO 17009KT 10SM CLR 29/23 A2992 RMK A01
KXPY 230955Z AUTO 15006KT 10SM CLR 29/23 A2992 RMK A01
KXPY 230935Z AUTO 14007KT 10SM FEW028 29/23 A2992 RMK A01
KXPY 230915Z AUTO 15006KT 10SM FEW028 29/23 A2992 RMK A01
KXPY 230855Z AUTO 15006G11KT 10SM CLR 29/23 A2992 RMK A01
KXPY 230835Z AUTO 15006KT 10SM CLR 29/23 A2993 RMK A01
KXPY 230815Z AUTO 15008KT 10SM FEW028 29/22 A2993 RMK A01
KXPY 230755Z AUTO 15009KT 10SM FEW028 29/23 A2993 RMK A01
KXPY 230735Z AUTO 14008KT 10SM CLR 29/23 A2994 RMK A01
KXPY 230715Z AUTO 14009G14KT 10SM CLR 29/23 A2994 RMK A01
KXPY 230655Z AUTO 14009KT 10SM FEW029 FEW037 29/23 A2995 RMK A01
KXPY 230635Z AUTO 15007KT 10SM FEW029 FEW036 29/23 A2995 RMK A01
KXPY 230615Z AUTO 13008G13KT 10SM FEW031 FEW039 29/23 A2995 RMK A01
KXPY 230555Z AUTO 14009G15KT 10SM SCT029 BKN038 29/23 A2995 RMK A01
KXPY 230535Z AUTO 15009KT 10SM SCT028 BKN035 BKN043 29/23 A2996 RMK A01
KXPY 230515Z AUTO 13012KT 10SM FEW028 SCT037 29/24 A2996 RMK A01
KXPY 230455Z AUTO 14010KT 10SM FEW029 SCT037 29/23 A2996 RMK A01
KXPY 230435Z AUTO 13010G16KT 10SM SCT029 SCT036 29/24 A2996 RMK A01
KXPY 230415Z AUTO 13009G15KT 10SM FEW028 29/23 A2997 RMK A01
KXPY 230355Z AUTO 13010KT 10SM CLR 29/23 A2997 RMK A01
KXPY 230335Z AUTO 13010KT 10SM SCT030 29/23 A2998 RMK A01
KXPY 230315Z AUTO 13009G15KT 10SM SCT028 SCT033 29/24 A2998 RMK A01
KXPY 230255Z AUTO 13010KT 10SM FEW027 SCT036 29/24 A2997 RMK A01
KXPY 230235Z AUTO 12009KT 10SM SCT027 BKN037 BKN055 29/24 A2997 RMK A01
KXPY 230215Z AUTO 13011KT 10SM BKN028 BKN036 29/24 A2997 RMK A01
KXPY 230155Z AUTO 13008KT 10SM BKN028 BKN035 29/24 A2997 RMK A01
KXPY 230135Z AUTO 13008KT 10SM FEW024 29/24 A2996 RMK A01
KXPY 230115Z AUTO 13006KT 10SM FEW026 SCT034 SCT041 29/24 A2996 RMK A01
KXPY 230055Z AUTO 15005KT 10SM SCT026 BKN034 BKN041 29/24 A2996 RMK A01
KXPY 230035Z AUTO 16005KT 10SM FEW025 SCT033 29/24 A2995 RMK A01
KXPY 230015Z AUTO 15003KT 10SM FEW026 SCT033 29/24 A2996 RMK A01
KXPY 222355Z AUTO 14006KT 10SM SCT024 SCT028 30/24 A2995 RMK A01
KXPY 222335Z AUTO VRB04KT 10SM CLR 30/24 A2995 RMK A01
KXPY 222315Z AUTO 16005KT 10SM CLR 30/24 A2995 RMK A01
KXPY 222255Z AUTO 17007KT 10SM CLR 30/24 A2995 RMK A01
KXPY 222235Z AUTO 16006KT 10SM CLR 30/24 A2995 RMK A01
KXPY 222215Z AUTO VRB06G11KT 10SM CLR 30/24 A2995 RMK A01
KXPY 222155Z AUTO VRB06KT 10SM FEW028 31/24 A2994 RMK A01
KXPY 222135Z AUTO 14008KT 10SM FEW027 30/24 A2993 RMK A01
KXPY 222115Z AUTO 13008KT 10SM CLR 30/24 A2994 RMK A01
KXPY 222055Z AUTO 14010KT 10SM FEW027 31/24 A2994 RMK A01
KXPY 222035Z AUTO 14007KT 110V170 10SM FEW027 30/24 A2994 RMK A01
KXPY 222015Z AUTO 14010KT 10SM SCT027 SCT034 31/24 A2995 RMK A01
KXPY 221955Z AUTO 13008G15KT 10SM SCT026 SCT034 31/24 A2996 RMK A01
KXPY 221935Z AUTO 16007G13KT 120V190 10SM FEW027 FEW033 31/24 A2996 RMK A01
KXPY 221915Z AUTO 14007G13KT 10SM FEW025 31/24 A2996 RMK A01
KXPY 221855Z AUTO 13008G14KT 10SM SCT025 31/24 A2997 RMK A01
KXPY 221835Z AUTO 14008G13KT 10SM FEW025 FEW033 FEW042 31/25 A2998 RMK A01
KXPY 221815Z AUTO 15008KT 120V180 10SM CLR 31/24 A2999 RMK A01
KXPY 221755Z AUTO 16008KT 120V190 10SM FEW024 FEW035 FEW045 31/25 A3000 RMK A01
KXPY 221735Z AUTO 14008KT 10SM FEW026 FEW035 FEW046 31/24 A3000 RMK A01
KXPY 221715Z AUTO VRB04G11KT 10SM BKN026 BKN045 BKN065 30/25 A3001 RMK A01
KXPY 221655Z AUTO VRB05G11KT 10SM BKN025 BKN030 BKN046 30/25 A3001 RMK A01
KXPY 221635Z AUTO 11005KT 10SM FEW029 FEW046 FEW055 30/25 A3001 RMK A01
KXPY 221615Z AUTO 08008KT 10SM CLR 30/25 A3001 RMK A01
KXPY 221555Z AUTO 10007KT 10SM FEW024 FEW050 30/25 A3002 RMK A01
KXPY 221535Z AUTO 10007KT 10SM SCT025 SCT030 30/25 A3002 RMK A01
KXPY 221515Z AUTO 09007KT 10SM SCT026 SCT034 SCT041 30/25 A3002 RMK A01
KXPY 221455Z AUTO 13005KT 10SM SCT026 SCT034 30/24 A3001 RMK A01
KXPY 221435Z AUTO 18006KT 10SM FEW024 30/25 A3001 RMK A01
KXPY 221415Z AUTO 16006KT 10SM FEW024 FEW032 30/25 A3001 RMK A01